Time;durP1;ratioP1;P1;durP2;ratioP2;P2;SDS_P1;SDS_P2;PMS_P1;PMS_P2;Temp;Humidity;BMP_temperature;BMP_pressure;BME280_temperature;BME280_humidity;BME280_pressure;Samples;Min_cycle;Max_cycle;Signal;HPM_P1;HPM_P2
2021/12/27 00:02:26;;;;;;;11.10;6.85;;;-1.00;99.90;;;;;;4995244;28;20036;-74
2021/12/27 00:04:51;;;;;;;14.43;7.63;;;-0.20;99.90;;;;;;5010266;28;20034;-74
2021/12/27 00:07:17;;;;;;;13.02;7.80;;;-1.00;99.90;;;;;;5013130;28;20037;-74
2021/12/27 00:09:44;;;;;;;13.95;8.30;;;-1.00;99.90;;;;;;5014694;28;20444;-74
2021/12/27 00:12:10;;;;;;;16.90;9.30;;;-1.00;99.90;;;;;;5011509;28;20033;-74
2021/12/27 00:14:36;;;;;;;15.70;8.13;;;-1.00;99.90;;;;;;5012572;28;20041;-74
2021/12/27 00:17:02;;;;;;;11.30;5.25;;;-1.10;99.90;;;;;;5010417;28;20471;-74
2021/12/27 00:19:27;;;;;;;10.90;6.15;;;-1.10;99.90;;;;;;5009299;28;20060;-74
2021/12/27 00:21:53;;;;;;;18.10;7.53;;;-1.20;99.90;;;;;;4977299;28;20508;-74
2021/12/27 00:24:19;;;;;;;11.57;7.45;;;-1.20;99.90;;;;;;4981684;28;20083;-74
2021/12/27 00:26:44;;;;;;;16.05;7.68;;;-1.30;99.90;;;;;;4977988;28;20037;-74
2021/12/27 00:29:11;;;;;;;12.77;7.88;;;-1.30;99.90;;;;;;4990515;28;20116;-74
2021/12/27 00:31:37;;;;;;;11.35;7.00;;;-1.30;99.90;;;;;;5003608;28;20045;-73
2021/12/27 00:34:03;;;;;;;13.68;6.40;;;-1.40;99.90;;;;;;5007127;28;20034;-73
2021/12/27 00:36:28;;;;;;;13.95;7.95;;;-1.40;99.90;;;;;;4994824;28;20124;-73
2021/12/27 00:38:54;;;;;;;13.90;7.80;;;-1.40;99.90;;;;;;5012050;28;20132;-74
2021/12/27 00:41:20;;;;;;;16.00;9.27;;;-1.40;99.90;;;;;;5009731;28;20091;-73
2021/12/27 00:43:46;;;;;;;12.60;7.78;;;-1.50;99.90;;;;;;4994781;28;20066;-74
2021/12/27 00:46:11;;;;;;;14.00;8.52;;;-1.50;99.90;;;;;;5009461;28;20041;-74
2021/12/27 00:48:37;;;;;;;15.77;8.77;;;-1.40;99.90;;;;;;4989101;28;20072;-74
2021/12/27 00:51:03;;;;;;;14.43;8.45;;;-1.60;99.90;;;;;;5006095;28;20041;-73
2021/12/27 00:53:29;;;;;;;15.82;7.60;;;-1.60;99.90;;;;;;5019072;28;20044;-74
2021/12/27 00:55:56;;;;;;;12.85;7.97;;;-1.20;99.90;;;;;;5006587;28;20045;-75
2021/12/27 00:58:21;;;;;;;12.00;7.15;;;-1.70;99.90;;;;;;4994478;28;20045;-74
2021/12/27 01:00:47;;;;;;;11.70;6.68;;;-1.40;99.90;;;;;;4993001;28;20045;-75
2021/12/27 01:03:13;;;;;;;13.20;8.57;;;-1.70;99.90;;;;;;5025760;28;20039;-76
2021/12/27 01:05:39;;;;;;;13.30;7.07;;;-1.70;99.90;;;;;;5009231;28;20433;-75
2021/12/27 01:08:06;;;;;;;13.63;7.65;;;-1.80;99.90;;;;;;4979134;28;20099;-75
2021/12/27 01:13:21;;;;;;;12.40;7.28;;;-1.70;99.90;;;;;;5021227;28;20417;-74
2021/12/27 01:15:52;;;;;;;12.50;7.57;;;-1.70;99.90;;;;;;5010365;28;20033;-75
2021/12/27 01:18:19;;;;;;;11.93;6.80;;;-1.10;99.90;;;;;;5011292;28;20129;-74
2021/12/27 01:20:45;;;;;;;15.25;8.27;;;-1.70;99.90;;;;;;5009330;28;20501;-75
2021/12/27 01:23:12;;;;;;;17.98;9.13;;;-1.60;99.90;;;;;;5002654;28;20534;-74
2021/12/27 01:25:38;;;;;;;15.30;7.68;;;-1.60;99.90;;;;;;4986461;28;20052;-74
2021/12/27 01:28:05;;;;;;;14.93;8.93;;;-1.60;99.90;;;;;;5015265;28;20041;-74
2021/12/27 01:30:36;;;;;;;13.10;7.03;;;-1.60;99.90;;;;;;4994710;28;20066;-74
2021/12/27 01:33:03;;;;;;;12.82;7.95;;;-1.60;99.90;;;;;;5008958;28;20080;-75
2021/12/27 01:35:28;;;;;;;15.75;7.20;;;-1.60;99.90;;;;;;5008369;28;20527;-75
2021/12/27 01:37:55;;;;;;;11.65;7.50;;;-1.50;99.90;;;;;;4992007;28;20053;-74
2021/12/27 01:40:27;;;;;;;13.00;8.50;;;-1.50;99.90;;;;;;4990277;28;20038;-74
2021/12/27 01:43:14;;;;;;;14.80;8.80;;;-1.50;99.90;;;;;;4992356;28;20073;-74
2021/12/27 01:45:46;;;;;;;16.05;8.93;;;-1.20;99.90;;;;;;5010499;28;20061;-74
2021/12/27 01:48:13;;;;;;;16.30;7.97;;;-1.50;99.90;;;;;;5003344;28;20037;-74
2021/12/27 01:50:42;;;;;;;14.85;8.75;;;-1.40;99.90;;;;;;5010882;28;20429;-74
2021/12/27 01:53:09;;;;;;;15.65;8.25;;;-1.50;99.90;;;;;;4996215;28;20045;-74
2021/12/27 01:55:35;;;;;;;14.40;8.50;;;-1.40;99.90;;;;;;5011062;28;20385;-74
2021/12/27 01:58:01;;;;;;;13.15;7.90;;;-1.40;99.90;;;;;;4995172;28;20430;-74
2021/12/27 02:00:28;;;;;;;16.55;8.32;;;-1.40;99.90;;;;;;5006286;28;20325;-75
2021/12/27 02:02:53;;;;;;;15.10;8.15;;;-1.40;99.90;;;;;;5027142;28;20041;-74
2021/12/27 02:05:19;;;;;;;18.70;11.43;;;-0.80;99.90;;;;;;5013534;28;20037;-74
2021/12/27 02:07:45;;;;;;;16.50;8.77;;;-1.40;99.90;;;;;;5012319;28;20462;-74
2021/12/27 02:10:12;;;;;;;17.23;8.70;;;-1.40;99.90;;;;;;5031666;28;20111;-74
2021/12/27 02:12:39;;;;;;;14.32;8.77;;;-1.00;99.90;;;;;;5011245;28;20658;-74
2021/12/27 02:15:09;;;;;;;15.90;8.60;;;-1.10;99.90;;;;;;4995376;28;20064;-74
2021/12/27 02:17:38;;;;;;;16.95;9.10;;;-1.40;99.90;;;;;;5010649;28;21090;-74
2021/12/27 02:20:09;;;;;;;16.92;8.90;;;-1.40;99.90;;;;;;4991156;28;20121;-74
2021/12/27 02:22:37;;;;;;;18.10;10.50;;;-1.40;99.90;;;;;;5000071;28;20041;-75
2021/12/27 02:25:05;;;;;;;16.33;9.57;;;-1.40;99.90;;;;;;4987608;28;20041;-73
2021/12/27 02:27:31;;;;;;;12.55;7.40;;;-1.40;99.90;;;;;;5001598;28;20044;-74
2021/12/27 02:29:57;;;;;;;17.60;9.38;;;-1.40;99.90;;;;;;4984196;28;20764;-75
2021/12/27 02:32:22;;;;;;;16.30;8.90;;;-1.30;99.90;;;;;;4998708;28;20445;-74
2021/12/27 02:34:48;;;;;;;20.33;12.45;;;-1.40;99.90;;;;;;4986099;28;20033;-74
2021/12/27 02:37:14;;;;;;;15.35;9.15;;;-1.30;99.90;;;;;;4967831;28;20044;-74
2021/12/27 02:39:39;;;;;;;12.75;8.10;;;-1.30;99.90;;;;;;5001053;28;20041;-75
2021/12/27 02:42:06;;;;;;;12.52;6.90;;;-1.30;99.90;;;;;;5000131;28;20045;-75
2021/12/27 02:44:34;;;;;;;21.40;13.05;;;-1.20;99.90;;;;;;4983291;28;20069;-74
2021/12/27 02:46:59;;;;;;;10.82;7.20;;;-1.30;99.90;;;;;;4988059;28;20053;-72
2021/12/27 02:49:25;;;;;;;21.55;12.18;;;-1.20;99.90;;;;;;5003113;28;20056;-72
2021/12/27 02:51:52;;;;;;;17.50;8.57;;;-0.50;99.90;;;;;;5000740;28;20029;-73
2021/12/27 02:54:18;;;;;;;16.90;10.38;;;0.00;99.90;;;;;;5010475;28;20037;-74
2021/12/27 02:56:44;;;;;;;14.45;8.70;;;-1.20;99.90;;;;;;4976195;28;20041;-74
2021/12/27 02:59:09;;;;;;;15.50;8.30;;;-1.20;99.90;;;;;;5011398;28;20104;-74
2021/12/27 03:01:35;;;;;;;14.30;8.73;;;-1.20;99.90;;;;;;5026260;28;20088;-73
2021/12/27 03:04:01;;;;;;;16.83;11.25;;;-0.30;99.90;;;;;;5011076;28;20037;-74
2021/12/27 03:06:26;;;;;;;15.10;8.45;;;-1.10;99.90;;;;;;5011288;28;20039;-74
2021/12/27 03:08:52;;;;;;;13.50;7.65;;;-0.50;99.90;;;;;;4996164;28;20040;-73
2021/12/27 03:11:18;;;;;;;20.63;11.35;;;-0.30;99.90;;;;;;5000882;28;20505;-73
2021/12/27 03:13:47;;;;;;;13.10;8.35;;;-1.10;99.90;;;;;;4973780;28;20045;-72
2021/12/27 03:16:16;;;;;;;17.80;11.43;;;-1.10;99.90;;;;;;5010917;28;20370;-73
2021/12/27 03:18:43;;;;;;;18.02;10.48;;;-1.10;99.90;;;;;;4990252;28;20512;-73
2021/12/27 03:21:10;;;;;;;17.27;9.77;;;-1.00;99.90;;;;;;5011847;28;20041;-74
2021/12/27 03:23:38;;;;;;;15.60;9.73;;;-1.00;99.90;;;;;;5021214;28;20351;-74
2021/12/27 03:26:05;;;;;;;15.40;8.68;;;-1.00;99.90;;;;;;5010285;28;20038;-74
2021/12/27 03:28:31;;;;;;;20.98;10.85;;;-1.00;99.90;;;;;;5009458;28;20358;-74
2021/12/27 03:30:57;;;;;;;15.55;8.68;;;-0.90;99.90;;;;;;4994657;28;20037;-72
2021/12/27 03:33:24;;;;;;;13.57;8.07;;;-1.00;99.90;;;;;;5009364;28;20045;-73
2021/12/27 03:36:02;;;;;;;16.38;8.95;;;-1.00;99.90;;;;;;5010898;28;20805;-73
2021/12/27 03:38:33;;;;;;;14.25;8.13;;;-0.90;99.90;;;;;;4991127;28;20072;-73
2021/12/27 03:40:59;;;;;;;20.30;11.30;;;-0.90;99.90;;;;;;5011887;28;20041;-73
2021/12/27 03:43:25;;;;;;;19.40;9.18;;;-0.90;99.90;;;;;;5012037;28;20436;-73
2021/12/27 03:45:51;;;;;;;18.75;10.27;;;-0.90;99.90;;;;;;4993636;28;20081;-72
2021/12/27 03:48:17;;;;;;;21.08;12.43;;;-0.90;99.90;;;;;;5011677;28;20095;-72
2021/12/27 03:50:43;;;;;;;20.08;10.75;;;-0.10;99.90;;;;;;5008648;28;20034;-72
2021/12/27 03:53:09;;;;;;;22.60;10.27;;;-0.50;99.90;;;;;;5007698;28;20055;-72
2021/12/27 03:55:36;;;;;;;12.65;6.40;;;-0.30;99.90;;;;;;4994565;28;20095;-73
2021/12/27 03:58:10;;;;;;;21.35;11.10;;;-0.90;99.90;;;;;;5011181;28;20087;-73
2021/12/27 04:00:50;;;;;;;15.47;9.57;;;-0.90;99.90;;;;;;5009501;28;20130;-73
2021/12/27 04:03:17;;;;;;;14.25;8.73;;;-0.70;99.90;;;;;;5010384;28;20103;-73
2021/12/27 04:05:43;;;;;;;17.15;9.77;;;-0.20;99.90;;;;;;5009832;28;20141;-72
2021/12/27 04:08:09;;;;;;;19.05;10.75;;;-0.80;99.90;;;;;;4993862;28;20041;-73
2021/12/27 04:10:40;;;;;;;14.25;9.05;;;-0.80;99.90;;;;;;5011171;28;20025;-73
2021/12/27 04:13:07;;;;;;;16.15;9.30;;;-0.70;99.90;;;;;;5008652;28;20038;-72
2021/12/27 04:15:33;;;;;;;16.73;10.07;;;-0.70;99.90;;;;;;5014500;28;20049;-72
2021/12/27 04:17:59;;;;;;;15.27;9.68;;;-0.70;99.90;;;;;;4992101;28;20049;-72
2021/12/27 04:20:26;;;;;;;14.10;8.20;;;-0.70;99.90;;;;;;5010475;28;20033;-73
2021/12/27 04:22:52;;;;;;;17.45;11.18;;;-0.70;99.90;;;;;;5011249;28;20397;-72
2021/12/27 04:25:20;;;;;;;14.95;9.15;;;-0.70;99.90;;;;;;4997200;28;20049;-73
2021/12/27 04:27:47;;;;;;;18.50;10.23;;;-0.70;99.90;;;;;;4993527;28;20037;-72
2021/12/27 04:30:14;;;;;;;12.75;8.13;;;-0.70;99.90;;;;;;4993360;28;20547;-73
2021/12/27 04:32:39;;;;;;;20.95;11.93;;;-0.70;99.90;;;;;;5010687;28;20513;-73
2021/12/27 04:35:06;;;;;;;19.80;10.77;;;-0.60;99.90;;;;;;5010101;28;20045;-73
2021/12/27 04:37:32;;;;;;;16.90;10.70;;;-0.60;99.90;;;;;;5011660;28;20040;-73
2021/12/27 04:39:59;;;;;;;17.75;11.02;;;-0.60;99.90;;;;;;5019351;28;20037;-73
2021/12/27 04:42:29;;;;;;;18.17;8.57;;;-0.60;99.90;;;;;;4997466;28;20057;-74
2021/12/27 04:44:55;;;;;;;12.73;7.85;;;-0.50;99.90;;;;;;5016728;28;20052;-74
2021/12/27 04:47:21;;;;;;;16.95;10.52;;;0.50;99.90;;;;;;4998241;28;20072;-74
2021/12/27 04:49:46;;;;;;;17.67;10.80;;;-0.10;99.90;;;;;;5010802;28;20108;-74
2021/12/27 04:52:12;;;;;;;18.48;9.73;;;-0.10;99.90;;;;;;4975123;28;20374;-74
2021/12/27 04:54:39;;;;;;;16.45;9.40;;;-0.50;99.90;;;;;;5008505;28;20046;-74
2021/12/27 04:57:04;;;;;;;22.52;13.00;;;-0.40;99.90;;;;;;5011756;28;20041;-75
2021/12/27 04:59:31;;;;;;;22.77;11.23;;;-0.20;99.90;;;;;;4996383;28;20400;-75
2021/12/27 05:01:57;;;;;;;15.98;9.98;;;-0.40;99.90;;;;;;5017504;28;20151;-74
2021/12/27 05:04:23;;;;;;;20.25;10.95;;;-0.50;99.90;;;;;;5024808;28;20037;-73
2021/12/27 05:06:48;;;;;;;19.40;10.02;;;-0.40;99.90;;;;;;5012007;28;20056;-74
2021/12/27 05:09:14;;;;;;;19.85;10.43;;;-0.20;99.90;;;;;;5028583;28;20148;-74
2021/12/27 05:11:40;;;;;;;20.45;11.00;;;-0.40;99.90;;;;;;5009143;28;20029;-74
2021/12/27 05:14:07;;;;;;;23.25;12.77;;;-0.20;99.90;;;;;;5011333;28;20033;-75
2021/12/27 05:16:33;;;;;;;20.15;13.15;;;-0.30;99.90;;;;;;5010829;28;20042;-75
2021/12/27 05:18:58;;;;;;;19.23;11.13;;;-0.30;99.90;;;;;;5013873;28;20076;-74
2021/12/27 05:21:24;;;;;;;17.77;8.93;;;-0.30;99.90;;;;;;5019275;28;20136;-75
2021/12/27 05:23:50;;;;;;;22.35;12.40;;;-0.30;99.90;;;;;;5015243;28;20042;-74
2021/12/27 05:26:16;;;;;;;18.33;9.77;;;-0.30;99.90;;;;;;5014042;28;20045;-75
2021/12/27 05:28:42;;;;;;;18.40;11.98;;;0.50;99.90;;;;;;5017948;28;20061;-74
2021/12/27 05:31:08;;;;;;;20.30;12.02;;;-0.20;99.90;;;;;;4976820;28;20076;-74
2021/12/27 05:33:34;;;;;;;19.20;9.98;;;-0.20;99.90;;;;;;5001657;28;20041;-74
2021/12/27 05:35:59;;;;;;;18.15;10.32;;;-0.30;99.90;;;;;;5012347;28;20060;-75
2021/12/27 05:38:25;;;;;;;24.23;14.35;;;-0.20;99.90;;;;;;5025059;28;20039;-73
2021/12/27 05:40:53;;;;;;;24.83;13.63;;;0.30;99.90;;;;;;5014678;28;20084;-73
2021/12/27 05:43:20;;;;;;;17.08;10.30;;;-0.20;99.90;;;;;;4997850;28;20089;-73
2021/12/27 05:45:46;;;;;;;23.63;12.57;;;-0.20;99.90;;;;;;5015015;28;20072;-73
2021/12/27 05:48:12;;;;;;;17.42;8.45;;;-0.20;99.90;;;;;;5013580;28;20046;-72
2021/12/27 05:50:38;;;;;;;18.98;10.68;;;-0.20;99.90;;;;;;5014183;28;20124;-73
2021/12/27 05:53:04;;;;;;;17.63;10.73;;;-0.20;99.90;;;;;;5016076;28;20045;-74
2021/12/27 05:55:30;;;;;;;21.15;10.68;;;-0.10;99.90;;;;;;5036376;28;20048;-74
2021/12/27 05:57:57;;;;;;;20.13;12.02;;;-0.10;99.90;;;;;;5017918;28;20033;-74
2021/12/27 06:00:23;;;;;;;25.15;12.98;;;-0.10;99.90;;;;;;5012820;28;20045;-75
2021/12/27 06:02:51;;;;;;;18.67;10.95;;;-0.10;99.90;;;;;;5012627;28;20042;-74
2021/12/27 06:05:17;;;;;;;19.15;11.30;;;-0.10;99.90;;;;;;5013053;28;20053;-74
2021/12/27 06:07:43;;;;;;;20.95;10.57;;;-0.10;99.90;;;;;;5013161;28;20092;-75
2021/12/27 06:10:09;;;;;;;20.83;11.43;;;0.00;99.90;;;;;;5016446;28;20039;-73
2021/12/27 06:12:35;;;;;;;20.58;12.13;;;0.90;99.90;;;;;;5015904;28;20038;-74
2021/12/27 06:15:02;;;;;;;23.42;12.77;;;0.00;99.90;;;;;;4996388;28;20413;-74
2021/12/27 06:17:30;;;;;;;23.05;12.07;;;0.00;99.90;;;;;;4975454;28;20045;-75
2021/12/27 06:19:55;;;;;;;20.02;10.85;;;0.60;99.90;;;;;;5028928;28;20374;-74
2021/12/27 06:22:21;;;;;;;21.33;12.70;;;0.10;99.90;;;;;;5013437;28;20041;-74
2021/12/27 06:24:47;;;;;;;17.25;10.98;;;0.10;99.90;;;;;;4996684;28;20124;-74
2021/12/27 06:27:12;;;;;;;25.33;13.32;;;0.10;99.90;;;;;;5011129;28;20045;-73
2021/12/27 06:29:38;;;;;;;22.67;11.52;;;0.10;99.90;;;;;;4993941;28;20133;-74
2021/12/27 06:32:04;;;;;;;21.27;12.70;;;0.10;99.90;;;;;;5011979;28;20037;-74
2021/12/27 06:34:30;;;;;;;20.27;11.18;;;0.10;99.90;;;;;;5018144;28;20142;-74
2021/12/27 06:36:56;;;;;;;22.63;11.30;;;0.10;99.90;;;;;;5012931;28;20068;-73
2021/12/27 06:39:21;;;;;;;22.98;12.32;;;0.10;99.90;;;;;;4980043;28;20498;-73
2021/12/27 06:41:47;;;;;;;22.73;12.48;;;0.20;99.90;;;;;;5011801;28;20068;-74
2021/12/27 06:44:13;;;;;;;24.38;13.18;;;0.20;99.90;;;;;;5000915;28;20523;-74
2021/12/27 06:46:38;;;;;;;22.10;13.13;;;0.20;99.90;;;;;;5014071;28;20037;-74
2021/12/27 06:49:04;;;;;;;24.60;12.80;;;0.30;99.90;;;;;;5012863;28;20045;-74
2021/12/27 06:51:30;;;;;;;20.80;11.75;;;0.30;99.90;;;;;;5013072;28;20878;-75
2021/12/27 06:53:56;;;;;;;23.95;13.30;;;0.20;99.90;;;;;;5011015;28;20057;-74
2021/12/27 06:56:22;;;;;;;25.00;12.23;;;0.30;99.90;;;;;;5030653;28;20041;-74
2021/12/27 06:58:48;;;;;;;22.85;13.48;;;0.70;99.90;;;;;;4995685;28;20045;-74
2021/12/27 07:01:13;;;;;;;21.50;10.70;;;0.30;99.90;;;;;;4998944;28;20045;-73
2021/12/27 07:03:39;;;;;;;16.90;8.35;;;0.30;99.90;;;;;;5012851;28;20033;-73
2021/12/27 07:06:05;;;;;;;23.88;11.88;;;0.30;99.90;;;;;;5012298;28;20132;-74
2021/12/27 07:08:30;;;;;;;29.00;14.38;;;0.30;99.90;;;;;;5015410;28;20033;-72
2021/12/27 07:10:56;;;;;;;19.70;9.60;;;0.30;99.90;;;;;;4997779;28;20036;-73
2021/12/27 07:13:22;;;;;;;23.52;13.40;;;0.40;99.90;;;;;;4999021;28;20084;-73
2021/12/27 07:15:48;;;;;;;25.25;12.40;;;0.40;99.90;;;;;;5012917;28;20094;-74
2021/12/27 07:18:20;;;;;;;25.00;13.50;;;0.40;99.90;;;;;;5011869;28;20042;-72
2021/12/27 07:20:46;;;;;;;28.63;14.68;;;0.40;99.90;;;;;;5008130;28;20045;-73
2021/12/27 07:23:12;;;;;;;29.80;16.13;;;0.40;99.90;;;;;;5001564;28;20037;-72
2021/12/27 07:25:38;;;;;;;19.77;12.25;;;0.40;99.90;;;;;;5010137;28;20060;-72
2021/12/27 07:28:04;;;;;;;18.10;9.52;;;0.50;99.90;;;;;;5009129;28;20041;-73
2021/12/27 07:30:30;;;;;;;19.45;11.20;;;0.40;99.90;;;;;;5007894;28;20034;-72
2021/12/27 07:32:57;;;;;;;24.08;12.65;;;0.50;99.90;;;;;;5003728;28;20033;-73
2021/12/27 07:35:24;;;;;;;16.55;9.10;;;0.40;99.90;;;;;;5009629;28;20052;-73
2021/12/27 07:37:49;;;;;;;18.95;10.50;;;0.50;99.90;;;;;;5007672;28;20685;-72
2021/12/27 07:40:16;;;;;;;23.35;12.77;;;0.50;99.90;;;;;;5001925;28;20041;-72
2021/12/27 07:42:42;;;;;;;24.05;13.57;;;0.50;99.90;;;;;;4987941;28;20065;-66
2021/12/27 07:45:08;;;;;;;25.00;14.23;;;0.50;99.90;;;;;;5005324;28;20129;-73
2021/12/27 07:47:34;;;;;;;31.58;17.23;;;0.50;99.90;;;;;;5008592;28;20053;-73
2021/12/27 07:49:59;;;;;;;23.77;12.55;;;1.20;99.90;;;;;;5006074;28;21683;-73
2021/12/27 07:52:25;;;;;;;24.80;12.82;;;0.60;99.90;;;;;;4995058;28;20079;-73
2021/12/27 07:54:51;;;;;;;24.33;12.82;;;0.60;99.90;;;;;;5014129;28;20543;-73
2021/12/27 07:57:17;;;;;;;29.85;14.73;;;0.60;99.90;;;;;;5009569;28;20045;-73
2021/12/27 07:59:47;;;;;;;25.00;13.45;;;0.60;99.90;;;;;;4991968;28;20124;-73
2021/12/27 08:02:13;;;;;;;28.73;14.32;;;0.70;99.90;;;;;;4993949;28;20043;-74
2021/12/27 08:04:40;;;;;;;28.73;14.25;;;0.70;99.90;;;;;;4992908;28;20080;-73
2021/12/27 08:07:06;;;;;;;29.17;14.85;;;0.70;99.90;;;;;;5005228;28;20037;-73
2021/12/27 08:09:32;;;;;;;26.08;14.15;;;0.80;99.90;;;;;;5021959;28;20068;-73
2021/12/27 08:11:58;;;;;;;21.10;10.43;;;1.00;99.90;;;;;;5005703;28;20038;-74
2021/12/27 08:14:23;;;;;;;19.30;10.88;;;0.70;99.90;;;;;;5004868;28;20385;-73
2021/12/27 08:16:49;;;;;;;33.90;17.88;;;0.90;99.90;;;;;;5002923;28;20065;-73
2021/12/27 08:19:15;;;;;;;20.08;11.07;;;0.90;99.90;;;;;;5006299;28;20095;-73
2021/12/27 08:21:41;;;;;;;25.23;12.52;;;0.80;99.90;;;;;;5008434;28;20080;-73
2021/12/27 08:24:07;;;;;;;28.40;14.55;;;0.90;99.90;;;;;;5005805;28;20046;-73
2021/12/27 08:26:33;;;;;;;24.27;12.70;;;0.90;99.90;;;;;;5024373;28;20047;-73
2021/12/27 08:29:01;;;;;;;26.80;15.65;;;0.90;99.90;;;;;;4986249;28;20042;-73
2021/12/27 08:31:27;;;;;;;26.13;14.43;;;0.90;99.90;;;;;;5004030;28;20096;-73
2021/12/27 08:33:52;;;;;;;26.23;12.98;;;0.90;99.90;;;;;;5010365;28;20042;-73
2021/12/27 08:36:19;;;;;;;23.27;12.50;;;1.20;99.90;;;;;;5021412;28;20156;-73
2021/12/27 08:38:48;;;;;;;24.73;12.60;;;1.00;99.90;;;;;;5004308;28;20103;-73
2021/12/27 08:41:15;;;;;;;32.15;16.52;;;1.10;99.90;;;;;;4987500;28;20041;-73
2021/12/27 08:43:43;;;;;;;29.15;13.88;;;1.00;99.90;;;;;;5021290;28;20103;-73
2021/12/27 08:46:09;;;;;;;26.45;13.85;;;1.00;99.90;;;;;;5020207;28;20077;-73
2021/12/27 08:48:35;;;;;;;23.80;11.98;;;1.00;99.90;;;;;;5008222;28;20030;-73
2021/12/27 08:51:01;;;;;;;29.20;13.30;;;2.10;99.90;;;;;;4988015;28;20044;-73
2021/12/27 08:53:27;;;;;;;26.77;14.30;;;1.20;99.90;;;;;;5009341;28;20389;-74
2021/12/27 08:55:54;;;;;;;25.80;11.98;;;1.10;99.90;;;;;;5011175;28;20050;-73
2021/12/27 08:58:19;;;;;;;24.33;13.70;;;1.20;99.90;;;;;;5009809;28;20044;-73
2021/12/27 09:00:46;;;;;;;25.90;13.48;;;1.60;99.90;;;;;;5012191;28;20401;-73
2021/12/27 09:03:11;;;;;;;25.52;14.23;;;1.20;99.90;;;;;;5013553;28;20033;-73
2021/12/27 09:05:38;;;;;;;23.30;11.77;;;1.20;99.90;;;;;;5006355;28;20051;-74
2021/12/27 09:08:04;;;;;;;27.55;14.48;;;1.30;99.90;;;;;;4998833;28;20034;-73
2021/12/27 09:10:30;;;;;;;28.38;14.48;;;1.30;99.90;;;;;;5005120;28;20077;-73
2021/12/27 09:12:56;;;;;;;30.52;15.15;;;1.30;99.90;;;;;;5005831;28;20420;-74
2021/12/27 09:15:22;;;;;;;24.65;12.45;;;1.30;99.90;;;;;;5008594;28;20065;-73
2021/12/27 09:17:48;;;;;;;34.22;14.95;;;1.30;99.90;;;;;;5022693;28;20088;-73
2021/12/27 09:20:14;;;;;;;33.92;14.88;;;1.40;99.90;;;;;;5006175;28;20051;-73
2021/12/27 09:22:41;;;;;;;27.92;14.25;;;1.70;99.90;;;;;;5014061;28;20063;-73
2021/12/27 09:25:07;;;;;;;28.42;13.90;;;1.40;99.90;;;;;;4992294;28;20692;-72
2021/12/27 09:27:32;;;;;;;38.38;19.08;;;1.50;99.90;;;;;;5009110;28;20041;-72
2021/12/27 09:29:58;;;;;;;28.88;14.80;;;1.40;99.90;;;;;;4991757;28;20117;-72
2021/12/27 09:32:24;;;;;;;25.83;12.68;;;1.60;99.90;;;;;;5008790;28;20091;-72
2021/12/27 09:34:50;;;;;;;32.78;14.80;;;1.50;99.90;;;;;;5008941;28;20497;-72
2021/12/27 09:37:16;;;;;;;33.70;15.32;;;1.50;99.90;;;;;;5007843;28;20533;-72
2021/12/27 09:39:42;;;;;;;31.25;14.00;;;1.60;99.90;;;;;;5007561;28;20037;-72
2021/12/27 09:42:08;;;;;;;40.35;19.08;;;1.60;99.90;;;;;;5007497;28;20071;-72
2021/12/27 09:44:34;;;;;;;36.92;17.17;;;2.30;99.90;;;;;;4992091;28;20137;-72
2021/12/27 09:47:00;;;;;;;30.40;12.52;;;1.70;99.90;;;;;;5008400;28;20052;-72
2021/12/27 09:49:29;;;;;;;35.30;18.38;;;1.80;99.90;;;;;;5003732;28;20037;-74
2021/12/27 09:51:57;;;;;;;32.60;15.40;;;1.70;99.90;;;;;;4992785;28;20041;-73
2021/12/27 09:54:26;;;;;;;29.65;14.85;;;2.10;99.90;;;;;;4977019;28;20029;-72
2021/12/27 09:56:52;;;;;;;27.73;14.63;;;1.80;99.90;;;;;;4991454;28;20542;-72
2021/12/27 09:59:18;;;;;;;37.10;18.17;;;1.70;99.90;;;;;;5012845;28;20072;-73
2021/12/27 10:01:43;;;;;;;32.88;15.70;;;1.70;99.90;;;;;;4991539;28;20136;-72
2021/12/27 10:04:09;;;;;;;31.50;15.00;;;1.70;99.90;;;;;;4992192;28;20103;-73
2021/12/27 10:06:35;;;;;;;34.78;17.02;;;1.80;99.90;;;;;;5008055;28;20041;-72
2021/12/27 10:09:05;;;;;;;37.55;19.35;;;1.80;99.90;;;;;;5004689;28;20037;-72
2021/12/27 10:11:39;;;;;;;32.95;15.75;;;1.80;99.90;;;;;;4999843;28;20033;-73
2021/12/27 10:14:12;;;;;;;28.23;12.73;;;1.80;99.90;;;;;;5015716;28;20794;-72
2021/12/27 10:16:42;;;;;;;36.65;18.70;;;1.80;99.90;;;;;;5012282;28;20086;-72
2021/12/27 10:19:10;;;;;;;32.13;14.82;;;2.50;99.90;;;;;;5006714;28;20033;-72
2021/12/27 10:21:41;;;;;;;31.42;15.98;;;2.00;99.90;;;;;;5006830;28;20045;-74
2021/12/27 10:24:18;;;;;;;36.15;16.08;;;1.90;99.90;;;;;;5005357;28;20878;-72
2021/12/27 10:26:49;;;;;;;32.88;14.10;;;2.00;99.90;;;;;;4991296;28;20041;-73
2021/12/27 10:29:22;;;;;;;27.58;13.57;;;2.20;99.90;;;;;;5005732;28;20037;-72
2021/12/27 10:32:10;;;;;;;27.63;14.82;;;2.20;99.90;;;;;;4988339;28;20037;-73
2021/12/27 10:34:49;;;;;;;45.83;17.85;;;2.20;99.90;;;;;;5005418;28;20132;-72
2021/12/27 10:37:17;;;;;;;34.88;18.00;;;2.20;99.90;;;;;;4989340;28;20461;-72
2021/12/27 10:39:57;;;;;;;33.03;15.90;;;2.20;99.90;;;;;;5005465;28;20045;-72
2021/12/27 10:42:37;;;;;;;41.13;18.80;;;2.40;99.90;;;;;;5005547;28;20083;-72
2021/12/27 10:45:19;;;;;;;39.47;18.17;;;2.30;99.90;;;;;;5004719;28;20085;-72
2021/12/27 10:47:47;;;;;;;34.25;14.40;;;2.40;99.90;;;;;;4989031;28;20044;-72
2021/12/27 10:50:19;;;;;;;34.60;16.65;;;2.50;99.90;;;;;;5005377;28;20037;-72
2021/12/27 10:52:58;;;;;;;44.72;18.70;;;2.50;99.90;;;;;;5007143;28;20152;-72
2021/12/27 10:55:38;;;;;;;38.75;16.40;;;2.30;99.90;;;;;;5006906;28;20489;-71
2021/12/27 10:58:12;;;;;;;37.47;17.20;;;2.50;99.90;;;;;;5005142;28;20037;-72
2021/12/27 11:00:38;;;;;;;35.33;16.87;;;2.50;99.90;;;;;;4979512;28;20049;-72
2021/12/27 11:03:04;;;;;;;40.53;18.65;;;2.40;99.90;;;;;;5006959;28;20099;-72
2021/12/27 11:05:33;;;;;;;40.20;17.77;;;2.50;99.90;;;;;;5007255;28;20041;-72
2021/12/27 11:08:02;;;;;;;37.22;16.20;;;2.70;99.90;;;;;;5006791;28;20140;-72
2021/12/27 11:10:30;;;;;;;37.35;16.95;;;2.70;99.90;;;;;;5005984;28;20045;-73
2021/12/27 11:12:59;;;;;;;39.05;17.52;;;2.50;99.90;;;;;;4990173;28;20554;-72
2021/12/27 11:15:30;;;;;;;40.25;17.73;;;2.70;99.90;;;;;;5001983;28;20041;-72
2021/12/27 11:17:57;;;;;;;36.15;15.88;;;2.70;99.90;;;;;;5006011;28;20505;-71
2021/12/27 11:20:23;;;;;;;34.67;16.83;;;2.90;99.90;;;;;;5008246;28;20041;-72
2021/12/27 11:22:51;;;;;;;35.83;16.50;;;2.80;99.90;;;;;;5007416;28;20034;-74
2021/12/27 11:25:20;;;;;;;36.70;14.90;;;2.90;99.90;;;;;;5008091;28;20045;-72
2021/12/27 11:27:46;;;;;;;35.88;16.30;;;2.60;99.90;;;;;;5008173;28;20037;-71
2021/12/27 11:30:15;;;;;;;38.40;16.98;;;2.70;99.90;;;;;;5008229;28;20045;-71
2021/12/27 11:33:14;;;;;;;45.22;16.95;;;2.80;99.90;;;;;;5011488;28;20941;-72
2021/12/27 11:36:04;;;;;;;42.17;17.75;;;3.70;99.90;;;;;;4945836;28;20125;-72
2021/12/27 11:38:44;;;;;;;30.35;15.45;;;3.00;99.90;;;;;;5004751;28;20045;-72
2021/12/27 11:41:24;;;;;;;36.13;16.90;;;3.00;99.90;;;;;;5008328;28;20049;-72
2021/12/27 11:43:57;;;;;;;36.03;16.15;;;2.80;99.90;;;;;;5023994;28;20101;-72
2021/12/27 11:46:30;;;;;;;34.63;16.15;;;3.00;99.90;;;;;;5007268;28;20053;-72
2021/12/27 11:48:59;;;;;;;52.63;17.80;;;3.10;99.90;;;;;;5008951;28;20952;-72
2021/12/27 11:51:34;;;;;;;40.40;17.33;;;2.80;99.90;;;;;;5007395;28;20052;-71
2021/12/27 11:54:02;;;;;;;43.67;18.70;;;3.20;99.90;;;;;;5007541;28;20041;-72
2021/12/27 11:56:37;;;;;;;34.50;13.15;;;3.00;99.90;;;;;;5006903;28;20049;-71
2021/12/27 11:59:26;;;;;;;29.77;13.68;;;2.80;99.90;;;;;;5006753;28;20103;-72
2021/12/27 12:01:57;;;;;;;37.83;16.88;;;3.10;99.90;;;;;;5006935;28;20476;-73
2021/12/27 12:04:48;;;;;;;41.53;17.23;;;2.90;99.90;;;;;;4971917;28;20537;-71
2021/12/27 12:07:32;;;;;;;38.85;15.73;;;3.00;99.90;;;;;;4995126;28;20143;-71
2021/12/27 12:09:59;;;;;;;40.47;17.37;;;3.10;99.90;;;;;;5023136;28;20041;-72
2021/12/27 12:12:28;;;;;;;45.00;18.20;;;2.90;99.90;;;;;;4990511;28;20296;-72
2021/12/27 12:14:55;;;;;;;49.63;20.05;;;3.10;99.90;;;;;;5008025;28;20049;-72
2021/12/27 12:17:38;;;;;;;43.90;18.58;;;3.50;99.90;;;;;;4989723;28;20563;-72
2021/12/27 12:20:04;;;;;;;56.13;20.48;;;2.90;99.90;;;;;;5007323;28;20045;-72
2021/12/27 12:22:32;;;;;;;41.63;16.65;;;3.00;99.90;;;;;;5006533;28;20049;-72
2021/12/27 12:25:23;;;;;;;46.10;17.83;;;3.90;99.90;;;;;;5007491;28;20049;-72
2021/12/27 12:28:11;;;;;;;33.70;14.23;;;3.40;99.90;;;;;;4991600;28;20060;-72
2021/12/27 12:30:47;;;;;;;41.03;16.33;;;3.40;99.90;;;;;;5011471;28;20057;-73
2021/12/27 12:33:15;;;;;;;41.08;15.88;;;3.40;99.90;;;;;;5014268;28;20051;-72
2021/12/27 12:35:45;;;;;;;39.50;17.05;;;3.30;99.90;;;;;;5014044;28;20113;-72
2021/12/27 12:38:43;;;;;;;43.75;17.88;;;3.10;99.90;;;;;;4998289;28;20505;-72
2021/12/27 12:41:15;;;;;;;38.58;17.33;;;3.30;99.90;;;;;;4977896;28;20397;-74
2021/12/27 12:43:50;;;;;;;40.63;15.27;;;3.50;99.90;;;;;;5013580;28;20068;-72